sensor_id;sensor_type;location;lat;lon;timestamp;P1;durP1;ratioP1;P2;durP2;ratioP2
37823;SDS011;23667;43.246;26.576;2022-07-31T00:00:37;6.35;;;4.38;;
37823;SDS011;23667;43.246;26.576;2022-07-31T00:03:03;10.13;;;4.03;;
37823;SDS011;23667;43.246;26.576;2022-07-31T00:05:29;9.10;;;4.38;;
37823;SDS011;23667;43.246;26.576;2022-07-31T00:07:55;8.75;;;4.63;;
37823;SDS011;23667;43.246;26.576;2022-07-31T00:10:20;13.88;;;3.90;;
37823;SDS011;23667;43.246;26.576;2022-07-31T00:12:46;8.02;;;4.85;;
37823;SDS011;23667;43.246;26.576;2022-07-31T00:15:11;11.45;;;3.58;;
37823;SDS011;23667;43.246;26.576;2022-07-31T00:17:37;9.32;;;4.70;;
37823;SDS011;23667;43.246;26.576;2022-07-31T00:20:04;8.10;;;4.40;;
37823;SDS011;23667;43.246;26.576;2022-07-31T00:22:30;7.05;;;4.32;;
37823;SDS011;23667;43.246;26.576;2022-07-31T00:24:56;6.55;;;4.28;;
37823;SDS011;23667;43.246;26.576;2022-07-31T00:27:22;7.05;;;4.50;;
37823;SDS011;23667;43.246;26.576;2022-07-31T00:29:48;4.63;;;4.07;;
37823;SDS011;23667;43.246;26.576;2022-07-31T00:32:14;6.55;;;4.68;;
37823;SDS011;23667;43.246;26.576;2022-07-31T00:34:40;4.65;;;4.00;;
37823;SDS011;23667;43.246;26.576;2022-07-31T00:37:06;6.82;;;4.35;;
37823;SDS011;23667;43.246;26.576;2022-07-31T00:39:32;9.35;;;3.95;;
37823;SDS011;23667;43.246;26.576;2022-07-31T00:41:57;8.23;;;3.65;;
37823;SDS011;23667;43.246;26.576;2022-07-31T00:44:23;8.00;;;4.50;;
37823;SDS011;23667;43.246;26.576;2022-07-31T00:46:49;9.75;;;4.22;;
37823;SDS011;23667;43.246;26.576;2022-07-31T00:49:14;10.70;;;3.80;;
37823;SDS011;23667;43.246;26.576;2022-07-31T00:51:40;7.28;;;3.78;;
37823;SDS011;23667;43.246;26.576;2022-07-31T00:54:06;5.88;;;3.97;;
37823;SDS011;23667;43.246;26.576;2022-07-31T00:56:32;5.50;;;4.38;;
37823;SDS011;23667;43.246;26.576;2022-07-31T00:58:59;6.70;;;4.28;;
37823;SDS011;23667;43.246;26.576;2022-07-31T01:01:24;6.75;;;4.00;;
37823;SDS011;23667;43.246;26.576;2022-07-31T01:03:51;7.72;;;4.10;;
37823;SDS011;23667;43.246;26.576;2022-07-31T01:06:17;7.25;;;4.00;;
37823;SDS011;23667;43.246;26.576;2022-07-31T01:08:43;5.15;;;4.20;;
37823;SDS011;23667;43.246;26.576;2022-07-31T01:11:14;6.93;;;4.05;;
37823;SDS011;23667;43.246;26.576;2022-07-31T01:13:46;8.07;;;4.22;;
37823;SDS011;23667;43.246;26.576;2022-07-31T01:16:16;4.43;;;3.95;;
37823;SDS011;23667;43.246;26.576;2022-07-31T01:18:43;5.68;;;4.20;;
37823;SDS011;23667;43.246;26.576;2022-07-31T01:21:12;8.73;;;4.68;;
37823;SDS011;23667;43.246;26.576;2022-07-31T01:27:09;7.97;;;4.00;;
37823;SDS011;23667;43.246;26.576;2022-07-31T01:32:09;6.20;;;3.70;;
37823;SDS011;23667;43.246;26.576;2022-07-31T01:34:45;9.38;;;4.10;;
37823;SDS011;23667;43.246;26.576;2022-07-31T01:40:22;5.03;;;4.00;;
37823;SDS011;23667;43.246;26.576;2022-07-31T01:42:55;8.02;;;4.10;;
37823;SDS011;23667;43.246;26.576;2022-07-31T01:45:26;7.25;;;4.68;;
37823;SDS011;23667;43.246;26.576;2022-07-31T01:47:55;7.78;;;4.50;;
37823;SDS011;23667;43.246;26.576;2022-07-31T01:50:22;10.10;;;4.25;;
37823;SDS011;23667;43.246;26.576;2022-07-31T01:52:48;6.25;;;4.22;;
37823;SDS011;23667;43.246;26.576;2022-07-31T01:55:16;6.57;;;4.40;;
37823;SDS011;23667;43.246;26.576;2022-07-31T01:57:42;4.60;;;4.07;;
37823;SDS011;23667;43.246;26.576;2022-07-31T02:00:10;4.80;;;4.18;;
37823;SDS011;23667;43.246;26.576;2022-07-31T02:02:36;9.82;;;4.55;;
37823;SDS011;23667;43.246;26.576;2022-07-31T02:05:04;6.65;;;5.07;;
37823;SDS011;23667;43.246;26.576;2022-07-31T02:07:35;7.93;;;4.95;;
37823;SDS011;23667;43.246;26.576;2022-07-31T02:10:02;14.13;;;5.03;;
37823;SDS011;23667;43.246;26.576;2022-07-31T02:12:29;6.90;;;4.95;;
37823;SDS011;23667;43.246;26.576;2022-07-31T02:14:56;6.43;;;5.75;;
37823;SDS011;23667;43.246;26.576;2022-07-31T02:17:22;13.82;;;5.40;;
37823;SDS011;23667;43.246;26.576;2022-07-31T02:19:50;7.45;;;5.78;;
37823;SDS011;23667;43.246;26.576;2022-07-31T02:22:17;12.02;;;5.32;;
37823;SDS011;23667;43.246;26.576;2022-07-31T02:24:44;7.03;;;4.95;;
37823;SDS011;23667;43.246;26.576;2022-07-31T02:27:10;6.97;;;5.13;;
37823;SDS011;23667;43.246;26.576;2022-07-31T02:29:36;7.47;;;4.88;;
37823;SDS011;23667;43.246;26.576;2022-07-31T02:32:03;6.10;;;5.18;;
37823;SDS011;23667;43.246;26.576;2022-07-31T02:34:30;7.45;;;5.20;;
37823;SDS011;23667;43.246;26.576;2022-07-31T02:36:59;7.60;;;5.50;;
37823;SDS011;23667;43.246;26.576;2022-07-31T02:39:25;7.15;;;5.15;;
37823;SDS011;23667;43.246;26.576;2022-07-31T02:41:54;7.35;;;5.43;;
37823;SDS011;23667;43.246;26.576;2022-07-31T02:44:22;5.13;;;4.63;;
37823;SDS011;23667;43.246;26.576;2022-07-31T02:46:48;5.57;;;4.60;;
37823;SDS011;23667;43.246;26.576;2022-07-31T02:49:14;7.40;;;4.93;;
37823;SDS011;23667;43.246;26.576;2022-07-31T02:51:40;7.10;;;5.00;;
37823;SDS011;23667;43.246;26.576;2022-07-31T02:54:06;6.22;;;4.82;;
37823;SDS011;23667;43.246;26.576;2022-07-31T02:56:32;6.90;;;4.28;;
37823;SDS011;23667;43.246;26.576;2022-07-31T02:58:58;10.90;;;4.85;;
37823;SDS011;23667;43.246;26.576;2022-07-31T03:01:23;6.20;;;4.57;;
37823;SDS011;23667;43.246;26.576;2022-07-31T03:03:49;9.73;;;4.35;;
37823;SDS011;23667;43.246;26.576;2022-07-31T03:06:15;8.35;;;4.40;;
37823;SDS011;23667;43.246;26.576;2022-07-31T03:08:41;6.55;;;5.20;;
37823;SDS011;23667;43.246;26.576;2022-07-31T03:11:08;14.85;;;5.47;;
37823;SDS011;23667;43.246;26.576;2022-07-31T03:13:34;5.65;;;4.90;;
37823;SDS011;23667;43.246;26.576;2022-07-31T03:16:01;7.20;;;5.03;;
37823;SDS011;23667;43.246;26.576;2022-07-31T03:18:28;10.80;;;4.50;;
37823;SDS011;23667;43.246;26.576;2022-07-31T03:20:56;6.22;;;5.07;;
37823;SDS011;23667;43.246;26.576;2022-07-31T03:23:22;8.13;;;4.72;;
37823;SDS011;23667;43.246;26.576;2022-07-31T03:25:49;7.72;;;5.00;;
37823;SDS011;23667;43.246;26.576;2022-07-31T03:28:18;12.77;;;4.60;;
37823;SDS011;23667;43.246;26.576;2022-07-31T03:30:45;7.28;;;4.60;;
37823;SDS011;23667;43.246;26.576;2022-07-31T03:33:14;6.57;;;5.05;;
37823;SDS011;23667;43.246;26.576;2022-07-31T03:35:40;6.07;;;5.30;;
37823;SDS011;23667;43.246;26.576;2022-07-31T03:38:05;12.48;;;5.60;;
37823;SDS011;23667;43.246;26.576;2022-07-31T03:40:31;6.13;;;5.00;;
37823;SDS011;23667;43.246;26.576;2022-07-31T03:42:56;10.60;;;5.10;;
37823;SDS011;23667;43.246;26.576;2022-07-31T03:45:24;7.97;;;5.22;;
37823;SDS011;23667;43.246;26.576;2022-07-31T03:47:50;7.18;;;4.55;;
37823;SDS011;23667;43.246;26.576;2022-07-31T03:50:16;9.32;;;4.75;;
37823;SDS011;23667;43.246;26.576;2022-07-31T03:52:43;6.55;;;4.90;;
37823;SDS011;23667;43.246;26.576;2022-07-31T03:55:10;9.48;;;4.47;;
37823;SDS011;23667;43.246;26.576;2022-07-31T03:57:36;8.40;;;4.55;;
37823;SDS011;23667;43.246;26.576;2022-07-31T04:00:02;8.55;;;4.68;;
37823;SDS011;23667;43.246;26.576;2022-07-31T04:02:29;8.25;;;4.53;;
37823;SDS011;23667;43.246;26.576;2022-07-31T04:04:55;6.70;;;4.13;;
37823;SDS011;23667;43.246;26.576;2022-07-31T04:07:21;6.65;;;4.38;;
37823;SDS011;23667;43.246;26.576;2022-07-31T04:09:47;6.82;;;4.50;;
37823;SDS011;23667;43.246;26.576;2022-07-31T04:12:13;7.03;;;4.57;;
37823;SDS011;23667;43.246;26.576;2022-07-31T04:14:39;9.32;;;4.03;;
37823;SDS011;23667;43.246;26.576;2022-07-31T04:17:04;5.85;;;4.70;;
37823;SDS011;23667;43.246;26.576;2022-07-31T04:19:30;10.75;;;4.93;;
37823;SDS011;23667;43.246;26.576;2022-07-31T04:21:56;4.82;;;4.13;;
37823;SDS011;23667;43.246;26.576;2022-07-31T04:24:25;6.50;;;4.70;;
37823;SDS011;23667;43.246;26.576;2022-07-31T04:26:53;11.35;;;4.93;;
37823;SDS011;23667;43.246;26.576;2022-07-31T04:29:19;10.77;;;4.65;;
37823;SDS011;23667;43.246;26.576;2022-07-31T04:31:45;9.60;;;6.18;;
37823;SDS011;23667;43.246;26.576;2022-07-31T04:34:10;10.00;;;4.78;;
37823;SDS011;23667;43.246;26.576;2022-07-31T04:36:36;9.60;;;4.93;;
37823;SDS011;23667;43.246;26.576;2022-07-31T04:39:02;9.35;;;4.57;;
37823;SDS011;23667;43.246;26.576;2022-07-31T04:41:27;7.50;;;4.47;;
37823;SDS011;23667;43.246;26.576;2022-07-31T04:43:53;12.10;;;5.45;;
37823;SDS011;23667;43.246;26.576;2022-07-31T04:46:19;6.85;;;4.80;;
37823;SDS011;23667;43.246;26.576;2022-07-31T04:48:45;10.07;;;4.60;;
37823;SDS011;23667;43.246;26.576;2022-07-31T04:51:17;7.97;;;4.97;;
37823;SDS011;23667;43.246;26.576;2022-07-31T04:53:44;8.52;;;4.68;;
37823;SDS011;23667;43.246;26.576;2022-07-31T04:56:10;6.82;;;5.25;;
37823;SDS011;23667;43.246;26.576;2022-07-31T04:58:54;11.05;;;4.97;;
37823;SDS011;23667;43.246;26.576;2022-07-31T05:01:20;13.85;;;6.03;;
37823;SDS011;23667;43.246;26.576;2022-07-31T05:03:46;10.15;;;5.43;;
37823;SDS011;23667;43.246;26.576;2022-07-31T05:06:11;8.88;;;4.95;;
37823;SDS011;23667;43.246;26.576;2022-07-31T05:08:37;8.43;;;4.47;;
37823;SDS011;23667;43.246;26.576;2022-07-31T05:11:04;9.13;;;5.50;;
37823;SDS011;23667;43.246;26.576;2022-07-31T05:13:49;11.98;;;5.07;;
37823;SDS011;23667;43.246;26.576;2022-07-31T05:16:16;6.90;;;5.20;;
37823;SDS011;23667;43.246;26.576;2022-07-31T05:18:42;7.97;;;5.18;;
37823;SDS011;23667;43.246;26.576;2022-07-31T05:21:09;7.13;;;4.95;;
37823;SDS011;23667;43.246;26.576;2022-07-31T05:23:36;9.98;;;4.63;;
37823;SDS011;23667;43.246;26.576;2022-07-31T05:26:02;8.23;;;4.93;;
37823;SDS011;23667;43.246;26.576;2022-07-31T05:28:29;8.07;;;5.20;;
37823;SDS011;23667;43.246;26.576;2022-07-31T05:31:04;8.98;;;4.50;;
37823;SDS011;23667;43.246;26.576;2022-07-31T05:33:31;8.32;;;4.68;;
37823;SDS011;23667;43.246;26.576;2022-07-31T05:35:57;9.73;;;4.55;;
37823;SDS011;23667;43.246;26.576;2022-07-31T05:38:24;7.65;;;4.63;;
37823;SDS011;23667;43.246;26.576;2022-07-31T05:40:50;5.28;;;4.78;;
37823;SDS011;23667;43.246;26.576;2022-07-31T05:43:16;6.20;;;4.90;;
37823;SDS011;23667;43.246;26.576;2022-07-31T05:45:42;11.45;;;5.50;;
37823;SDS011;23667;43.246;26.576;2022-07-31T05:48:08;10.07;;;4.57;;
37823;SDS011;23667;43.246;26.576;2022-07-31T05:50:34;9.45;;;4.45;;
37823;SDS011;23667;43.246;26.576;2022-07-31T05:53:00;7.15;;;4.90;;
37823;SDS011;23667;43.246;26.576;2022-07-31T05:55:25;7.05;;;4.95;;
37823;SDS011;23667;43.246;26.576;2022-07-31T05:57:51;7.45;;;4.28;;
37823;SDS011;23667;43.246;26.576;2022-07-31T06:00:17;9.57;;;4.32;;
37823;SDS011;23667;43.246;26.576;2022-07-31T06:02:45;9.90;;;3.80;;
37823;SDS011;23667;43.246;26.576;2022-07-31T06:05:11;7.15;;;4.00;;
37823;SDS011;23667;43.246;26.576;2022-07-31T06:07:36;7.03;;;3.05;;
37823;SDS011;23667;43.246;26.576;2022-07-31T06:10:02;4.60;;;3.45;;
37823;SDS011;23667;43.246;26.576;2022-07-31T06:12:28;4.68;;;3.42;;
37823;SDS011;23667;43.246;26.576;2022-07-31T06:14:53;4.63;;;2.90;;
37823;SDS011;23667;43.246;26.576;2022-07-31T06:17:19;3.22;;;2.92;;
37823;SDS011;23667;43.246;26.576;2022-07-31T06:19:45;5.75;;;2.58;;
37823;SDS011;23667;43.246;26.576;2022-07-31T06:22:10;2.67;;;1.92;;
37823;SDS011;23667;43.246;26.576;2022-07-31T06:24:36;2.92;;;2.53;;
37823;SDS011;23667;43.246;26.576;2022-07-31T06:27:02;4.82;;;2.60;;
37823;SDS011;23667;43.246;26.576;2022-07-31T06:29:28;3.00;;;2.67;;
37823;SDS011;23667;43.246;26.576;2022-07-31T06:31:54;4.25;;;2.63;;
37823;SDS011;23667;43.246;26.576;2022-07-31T06:34:20;4.72;;;2.90;;
37823;SDS011;23667;43.246;26.576;2022-07-31T06:36:46;5.07;;;3.05;;
37823;SDS011;23667;43.246;26.576;2022-07-31T06:39:11;3.40;;;2.60;;
37823;SDS011;23667;43.246;26.576;2022-07-31T06:41:37;3.78;;;1.60;;
37823;SDS011;23667;43.246;26.576;2022-07-31T06:44:09;6.63;;;1.98;;
37823;SDS011;23667;43.246;26.576;2022-07-31T06:46:35;4.13;;;1.27;;
37823;SDS011;23667;43.246;26.576;2022-07-31T06:49:01;3.47;;;1.67;;
37823;SDS011;23667;43.246;26.576;2022-07-31T06:51:27;8.88;;;2.15;;
37823;SDS011;23667;43.246;26.576;2022-07-31T06:53:52;4.15;;;1.75;;
37823;SDS011;23667;43.246;26.576;2022-07-31T06:56:18;4.18;;;1.92;;
37823;SDS011;23667;43.246;26.576;2022-07-31T06:58:43;2.45;;;1.75;;
37823;SDS011;23667;43.246;26.576;2022-07-31T07:01:09;2.33;;;1.63;;
37823;SDS011;23667;43.246;26.576;2022-07-31T07:03:34;3.85;;;1.70;;
37823;SDS011;23667;43.246;26.576;2022-07-31T07:06:00;4.30;;;2.42;;
37823;SDS011;23667;43.246;26.576;2022-07-31T07:08:27;2.30;;;1.70;;
37823;SDS011;23667;43.246;26.576;2022-07-31T07:10:53;2.95;;;2.25;;
37823;SDS011;23667;43.246;26.576;2022-07-31T07:13:19;5.97;;;1.77;;
37823;SDS011;23667;43.246;26.576;2022-07-31T07:15:45;4.40;;;1.75;;
37823;SDS011;23667;43.246;26.576;2022-07-31T07:18:11;7.93;;;2.33;;
37823;SDS011;23667;43.246;26.576;2022-07-31T07:20:36;2.40;;;1.77;;
37823;SDS011;23667;43.246;26.576;2022-07-31T07:23:03;3.75;;;1.92;;
37823;SDS011;23667;43.246;26.576;2022-07-31T07:25:30;4.25;;;2.22;;
37823;SDS011;23667;43.246;26.576;2022-07-31T07:27:55;3.92;;;2.28;;
37823;SDS011;23667;43.246;26.576;2022-07-31T07:30:23;2.35;;;2.13;;
37823;SDS011;23667;43.246;26.576;2022-07-31T07:32:52;6.18;;;2.30;;
37823;SDS011;23667;43.246;26.576;2022-07-31T07:35:18;8.05;;;2.35;;
37823;SDS011;23667;43.246;26.576;2022-07-31T07:37:44;2.85;;;1.73;;
37823;SDS011;23667;43.246;26.576;2022-07-31T07:40:09;4.05;;;2.33;;
37823;SDS011;23667;43.246;26.576;2022-07-31T07:42:35;3.17;;;1.88;;
37823;SDS011;23667;43.246;26.576;2022-07-31T07:45:01;4.05;;;1.90;;
37823;SDS011;23667;43.246;26.576;2022-07-31T07:47:27;2.10;;;1.38;;
37823;SDS011;23667;43.246;26.576;2022-07-31T07:49:53;4.10;;;1.90;;
37823;SDS011;23667;43.246;26.576;2022-07-31T07:52:18;7.07;;;1.60;;
37823;SDS011;23667;43.246;26.576;2022-07-31T07:54:44;4.47;;;1.65;;
37823;SDS011;23667;43.246;26.576;2022-07-31T07:57:13;5.57;;;1.80;;
37823;SDS011;23667;43.246;26.576;2022-07-31T07:59:43;2.42;;;1.63;;
37823;SDS011;23667;43.246;26.576;2022-07-31T08:02:09;2.78;;;1.20;;
37823;SDS011;23667;43.246;26.576;2022-07-31T08:04:36;3.75;;;1.55;;
37823;SDS011;23667;43.246;26.576;2022-07-31T08:07:02;5.50;;;1.92;;
37823;SDS011;23667;43.246;26.576;2022-07-31T08:09:28;3.30;;;1.92;;
37823;SDS011;23667;43.246;26.576;2022-07-31T08:11:54;6.93;;;1.60;;
37823;SDS011;23667;43.246;26.576;2022-07-31T08:14:19;2.85;;;1.85;;
37823;SDS011;23667;43.246;26.576;2022-07-31T08:16:45;2.53;;;2.00;;
37823;SDS011;23667;43.246;26.576;2022-07-31T08:19:11;3.80;;;2.38;;
37823;SDS011;23667;43.246;26.576;2022-07-31T08:21:36;2.53;;;1.50;;
37823;SDS011;23667;43.246;26.576;2022-07-31T08:24:03;2.50;;;1.38;;
37823;SDS011;23667;43.246;26.576;2022-07-31T08:26:29;1.58;;;1.00;;
37823;SDS011;23667;43.246;26.576;2022-07-31T08:29:15;5.70;;;2.05;;
37823;SDS011;23667;43.246;26.576;2022-07-31T08:31:40;5.95;;;1.98;;
37823;SDS011;23667;43.246;26.576;2022-07-31T08:34:06;5.10;;;2.10;;
37823;SDS011;23667;43.246;26.576;2022-07-31T08:36:31;4.65;;;1.92;;
37823;SDS011;23667;43.246;26.576;2022-07-31T08:38:57;3.35;;;2.20;;
37823;SDS011;23667;43.246;26.576;2022-07-31T08:41:22;5.82;;;2.58;;
37823;SDS011;23667;43.246;26.576;2022-07-31T08:43:48;2.95;;;1.73;;
37823;SDS011;23667;43.246;26.576;2022-07-31T08:46:15;3.20;;;1.90;;
37823;SDS011;23667;43.246;26.576;2022-07-31T08:48:41;5.40;;;2.13;;
37823;SDS011;23667;43.246;26.576;2022-07-31T08:51:10;3.38;;;1.73;;
37823;SDS011;23667;43.246;26.576;2022-07-31T08:53:37;1.88;;;1.30;;
37823;SDS011;23667;43.246;26.576;2022-07-31T08:56:07;4.07;;;1.90;;
37823;SDS011;23667;43.246;26.576;2022-07-31T08:58:33;2.08;;;1.40;;
37823;SDS011;23667;43.246;26.576;2022-07-31T09:00:59;18.10;;;2.25;;
37823;SDS011;23667;43.246;26.576;2022-07-31T09:03:25;11.05;;;2.05;;
37823;SDS011;23667;43.246;26.576;2022-07-31T09:05:50;7.18;;;1.98;;
37823;SDS011;23667;43.246;26.576;2022-07-31T09:08:16;2.17;;;1.40;;
37823;SDS011;23667;43.246;26.576;2022-07-31T09:10:41;3.58;;;1.50;;
37823;SDS011;23667;43.246;26.576;2022-07-31T09:13:11;3.45;;;1.40;;
37823;SDS011;23667;43.246;26.576;2022-07-31T09:15:43;9.32;;;2.10;;
37823;SDS011;23667;43.246;26.576;2022-07-31T09:18:18;6.80;;;1.95;;
37823;SDS011;23667;43.246;26.576;2022-07-31T09:20:55;3.70;;;1.88;;
37823;SDS011;23667;43.246;26.576;2022-07-31T09:23:26;2.60;;;1.90;;
37823;SDS011;23667;43.246;26.576;2022-07-31T09:25:53;4.18;;;2.13;;
37823;SDS011;23667;43.246;26.576;2022-07-31T09:28:18;3.28;;;2.05;;
37823;SDS011;23667;43.246;26.576;2022-07-31T09:30:52;2.75;;;2.13;;
37823;SDS011;23667;43.246;26.576;2022-07-31T09:33:18;2.92;;;2.22;;
37823;SDS011;23667;43.246;26.576;2022-07-31T09:35:46;5.78;;;2.33;;
37823;SDS011;23667;43.246;26.576;2022-07-31T09:38:13;3.67;;;2.17;;
37823;SDS011;23667;43.246;26.576;2022-07-31T09:40:39;4.85;;;1.75;;
37823;SDS011;23667;43.246;26.576;2022-07-31T09:43:17;4.18;;;2.10;;
37823;SDS011;23667;43.246;26.576;2022-07-31T09:45:44;5.43;;;2.30;;
37823;SDS011;23667;43.246;26.576;2022-07-31T09:48:13;3.13;;;2.40;;
37823;SDS011;23667;43.246;26.576;2022-07-31T09:50:50;3.10;;;2.08;;
37823;SDS011;23667;43.246;26.576;2022-07-31T09:53:17;3.58;;;2.13;;
37823;SDS011;23667;43.246;26.576;2022-07-31T09:55:50;4.07;;;2.30;;
37823;SDS011;23667;43.246;26.576;2022-07-31T09:58:17;3.40;;;2.03;;
37823;SDS011;23667;43.246;26.576;2022-07-31T10:00:43;4.78;;;1.77;;
37823;SDS011;23667;43.246;26.576;2022-07-31T10:03:12;2.20;;;1.90;;
37823;SDS011;23667;43.246;26.576;2022-07-31T10:05:40;4.65;;;2.30;;
37823;SDS011;23667;43.246;26.576;2022-07-31T10:08:06;3.47;;;2.60;;
37823;SDS011;23667;43.246;26.576;2022-07-31T10:10:33;3.83;;;2.13;;
37823;SDS011;23667;43.246;26.576;2022-07-31T10:13:00;3.10;;;2.20;;
37823;SDS011;23667;43.246;26.576;2022-07-31T10:15:30;2.03;;;1.73;;
37823;SDS011;23667;43.246;26.576;2022-07-31T10:17:59;4.97;;;2.50;;
37823;SDS011;23667;43.246;26.576;2022-07-31T10:20:26;3.42;;;2.65;;
37823;SDS011;23667;43.246;26.576;2022-07-31T10:22:55;3.50;;;3.20;;
37823;SDS011;23667;43.246;26.576;2022-07-31T10:25:26;7.35;;;3.67;;
37823;SDS011;23667;43.246;26.576;2022-07-31T10:27:53;14.70;;;4.55;;
37823;SDS011;23667;43.246;26.576;2022-07-31T10:30:21;5.28;;;3.17;;
37823;SDS011;23667;43.246;26.576;2022-07-31T10:32:47;7.10;;;3.50;;
37823;SDS011;23667;43.246;26.576;2022-07-31T10:35:14;3.63;;;2.92;;
37823;SDS011;23667;43.246;26.576;2022-07-31T10:37:47;3.65;;;3.35;;
37823;SDS011;23667;43.246;26.576;2022-07-31T10:40:30;4.43;;;3.08;;
37823;SDS011;23667;43.246;26.576;2022-07-31T10:43:12;3.65;;;3.30;;
37823;SDS011;23667;43.246;26.576;2022-07-31T10:45:48;3.75;;;3.30;;
37823;SDS011;23667;43.246;26.576;2022-07-31T10:48:15;4.47;;;3.45;;
37823;SDS011;23667;43.246;26.576;2022-07-31T10:50:41;3.78;;;3.40;;
37823;SDS011;23667;43.246;26.576;2022-07-31T10:53:08;3.35;;;3.05;;
37823;SDS011;23667;43.246;26.576;2022-07-31T10:55:37;6.15;;;3.22;;
37823;SDS011;23667;43.246;26.576;2022-07-31T11:00:37;3.85;;;3.42;;
37823;SDS011;23667;43.246;26.576;2022-07-31T11:05:55;3.95;;;3.55;;
37823;SDS011;23667;43.246;26.576;2022-07-31T11:08:22;5.40;;;3.50;;
37823;SDS011;23667;43.246;26.576;2022-07-31T11:10:48;7.72;;;4.32;;
37823;SDS011;23667;43.246;26.576;2022-07-31T11:13:15;6.75;;;3.90;;
37823;SDS011;23667;43.246;26.576;2022-07-31T11:15:41;4.80;;;4.40;;
37823;SDS011;23667;43.246;26.576;2022-07-31T11:18:11;5.68;;;4.03;;
37823;SDS011;23667;43.246;26.576;2022-07-31T11:20:40;4.53;;;4.07;;
37823;SDS011;23667;43.246;26.576;2022-07-31T11:23:16;4.97;;;3.93;;
37823;SDS011;23667;43.246;26.576;2022-07-31T11:25:42;6.63;;;3.95;;
37823;SDS011;23667;43.246;26.576;2022-07-31T11:30:49;5.50;;;3.67;;
37823;SDS011;23667;43.246;26.576;2022-07-31T11:33:42;6.70;;;3.67;;
37823;SDS011;23667;43.246;26.576;2022-07-31T11:36:27;5.07;;;3.60;;
37823;SDS011;23667;43.246;26.576;2022-07-31T11:38:54;6.57;;;3.20;;
37823;SDS011;23667;43.246;26.576;2022-07-31T11:41:20;7.78;;;3.00;;
37823;SDS011;23667;43.246;26.576;2022-07-31T11:43:51;3.97;;;3.05;;
37823;SDS011;23667;43.246;26.576;2022-07-31T11:46:22;3.95;;;3.53;;
37823;SDS011;23667;43.246;26.576;2022-07-31T11:48:48;5.45;;;3.47;;
37823;SDS011;23667;43.246;26.576;2022-07-31T11:51:17;4.20;;;3.80;;
37823;SDS011;23667;43.246;26.576;2022-07-31T11:53:44;5.15;;;3.72;;
37823;SDS011;23667;43.246;26.576;2022-07-31T11:56:10;5.90;;;3.53;;
37823;SDS011;23667;43.246;26.576;2022-07-31T11:58:36;10.65;;;4.60;;
37823;SDS011;23667;43.246;26.576;2022-07-31T12:01:03;5.10;;;4.57;;
37823;SDS011;23667;43.246;26.576;2022-07-31T12:05:56;5.63;;;5.22;;
37823;SDS011;23667;43.246;26.576;2022-07-31T12:08:23;5.72;;;5.22;;
37823;SDS011;23667;43.246;26.576;2022-07-31T12:10:53;5.78;;;5.20;;
37823;SDS011;23667;43.246;26.576;2022-07-31T12:13:21;6.63;;;5.07;;
37823;SDS011;23667;43.246;26.576;2022-07-31T12:15:54;5.93;;;5.35;;
37823;SDS011;23667;43.246;26.576;2022-07-31T12:18:20;8.65;;;6.22;;
37823;SDS011;23667;43.246;26.576;2022-07-31T12:20:59;8.63;;;6.57;;
37823;SDS011;23667;43.246;26.576;2022-07-31T12:23:39;9.13;;;6.53;;
37823;SDS011;23667;43.246;26.576;2022-07-31T12:28:56;7.88;;;7.18;;
37823;SDS011;23667;43.246;26.576;2022-07-31T12:33:47;7.05;;;6.45;;
37823;SDS011;23667;43.246;26.576;2022-07-31T12:36:13;7.15;;;6.43;;
37823;SDS011;23667;43.246;26.576;2022-07-31T12:38:40;7.85;;;6.03;;
37823;SDS011;23667;43.246;26.576;2022-07-31T12:41:06;6.30;;;5.80;;
37823;SDS011;23667;43.246;26.576;2022-07-31T12:43:32;6.53;;;6.03;;
37823;SDS011;23667;43.246;26.576;2022-07-31T12:45:57;9.38;;;6.68;;
37823;SDS011;23667;43.246;26.576;2022-07-31T12:48:26;6.43;;;5.82;;
37823;SDS011;23667;43.246;26.576;2022-07-31T12:50:54;8.32;;;5.65;;
37823;SDS011;23667;43.246;26.576;2022-07-31T12:53:20;7.45;;;6.72;;
37823;SDS011;23667;43.246;26.576;2022-07-31T12:55:46;7.38;;;6.60;;
37823;SDS011;23667;43.246;26.576;2022-07-31T12:58:11;7.18;;;6.45;;
37823;SDS011;23667;43.246;26.576;2022-07-31T13:00:37;7.53;;;6.43;;
37823;SDS011;23667;43.246;26.576;2022-07-31T13:03:02;6.75;;;5.70;;
37823;SDS011;23667;43.246;26.576;2022-07-31T13:05:28;7.88;;;7.18;;
37823;SDS011;23667;43.246;26.576;2022-07-31T13:07:53;9.85;;;6.70;;
37823;SDS011;23667;43.246;26.576;2022-07-31T13:10:19;7.03;;;6.32;;
37823;SDS011;23667;43.246;26.576;2022-07-31T13:12:45;6.70;;;6.18;;
37823;SDS011;23667;43.246;26.576;2022-07-31T13:15:14;6.63;;;5.95;;
37823;SDS011;23667;43.246;26.576;2022-07-31T13:17:41;6.40;;;5.95;;
37823;SDS011;23667;43.246;26.576;2022-07-31T13:20:07;6.85;;;6.25;;
37823;SDS011;23667;43.246;26.576;2022-07-31T13:22:32;6.80;;;6.18;;
37823;SDS011;23667;43.246;26.576;2022-07-31T13:24:58;8.82;;;7.95;;
37823;SDS011;23667;43.246;26.576;2022-07-31T13:27:24;7.35;;;6.10;;
37823;SDS011;23667;43.246;26.576;2022-07-31T13:29:49;7.50;;;6.70;;
37823;SDS011;23667;43.246;26.576;2022-07-31T13:32:15;7.80;;;6.55;;
37823;SDS011;23667;43.246;26.576;2022-07-31T13:34:40;7.18;;;6.30;;
37823;SDS011;23667;43.246;26.576;2022-07-31T13:37:06;6.88;;;6.28;;
37823;SDS011;23667;43.246;26.576;2022-07-31T13:39:31;7.03;;;6.05;;
37823;SDS011;23667;43.246;26.576;2022-07-31T13:41:57;6.07;;;5.57;;
37823;SDS011;23667;43.246;26.576;2022-07-31T13:44:22;6.18;;;5.68;;
37823;SDS011;23667;43.246;26.576;2022-07-31T13:46:48;5.95;;;5.45;;
37823;SDS011;23667;43.246;26.576;2022-07-31T13:49:13;5.93;;;5.43;;
37823;SDS011;23667;43.246;26.576;2022-07-31T13:51:39;5.90;;;5.25;;
37823;SDS011;23667;43.246;26.576;2022-07-31T13:54:05;7.82;;;5.75;;
37823;SDS011;23667;43.246;26.576;2022-07-31T13:56:30;5.43;;;4.97;;
37823;SDS011;23667;43.246;26.576;2022-07-31T13:58:56;5.20;;;4.80;;
37823;SDS011;23667;43.246;26.576;2022-07-31T14:01:21;5.22;;;4.82;;
37823;SDS011;23667;43.246;26.576;2022-07-31T14:03:47;6.25;;;4.50;;
37823;SDS011;23667;43.246;26.576;2022-07-31T14:06:12;4.95;;;4.55;;
37823;SDS011;23667;43.246;26.576;2022-07-31T14:08:38;4.50;;;4.10;;
37823;SDS011;23667;43.246;26.576;2022-07-31T14:11:03;4.07;;;3.78;;
37823;SDS011;23667;43.246;26.576;2022-07-31T14:13:29;4.05;;;3.70;;
37823;SDS011;23667;43.246;26.576;2022-07-31T14:15:55;4.30;;;3.90;;
37823;SDS011;23667;43.246;26.576;2022-07-31T14:18:21;3.97;;;3.25;;
37823;SDS011;23667;43.246;26.576;2022-07-31T14:20:47;6.25;;;4.43;;
37823;SDS011;23667;43.246;26.576;2022-07-31T14:23:13;3.85;;;3.55;;
37823;SDS011;23667;43.246;26.576;2022-07-31T14:25:39;8.13;;;4.30;;
37823;SDS011;23667;43.246;26.576;2022-07-31T14:28:05;4.97;;;4.13;;
37823;SDS011;23667;43.246;26.576;2022-07-31T14:30:31;5.28;;;3.90;;
37823;SDS011;23667;43.246;26.576;2022-07-31T14:32:58;3.85;;;3.53;;
37823;SDS011;23667;43.246;26.576;2022-07-31T14:35:24;4.05;;;3.75;;
37823;SDS011;23667;43.246;26.576;2022-07-31T14:37:50;5.38;;;3.50;;
37823;SDS011;23667;43.246;26.576;2022-07-31T14:40:15;4.50;;;3.58;;
37823;SDS011;23667;43.246;26.576;2022-07-31T14:42:41;4.20;;;3.80;;
37823;SDS011;23667;43.246;26.576;2022-07-31T14:45:09;4.90;;;3.67;;
37823;SDS011;23667;43.246;26.576;2022-07-31T14:47:35;5.90;;;3.63;;
37823;SDS011;23667;43.246;26.576;2022-07-31T14:50:02;7.13;;;3.15;;
37823;SDS011;23667;43.246;26.576;2022-07-31T14:52:29;4.82;;;3.35;;
37823;SDS011;23667;43.246;26.576;2022-07-31T14:54:56;4.35;;;3.65;;
37823;SDS011;23667;43.246;26.576;2022-07-31T14:57:25;3.55;;;3.25;;